Latest Weather Observations for Cooma Airport

IDN60901

Issued at 12:21 am EST Wednesday 1 June 2016 (issued every 10 minutes, with the page automatically refreshed every 10 minutes)

About weather observations | Map of Canberra area stations | Latest observations for Canberra area | Other Formats
Station Details ID: 070217 Name: COOMA AIRPORT AWS Lat: -36.29 Lon: 148.97 Height: 930.0 m
Data from the previous 72 hours. | See also: Recent months at Cooma Airport
Date/Time
EST
Tmp

°C
App
Tmp
°C
Dew
Point
°C
Rel
Hum
%
Delta-T

°C
Wind Press
QNH
hPa
Press
MSL
hPa
Rain
since
9 am
mm
Dir
 
Spd
km/h
Gust
km/h
Spd
kts
Gust
kts
01/12:00am 6.2 2.4 4.0 86 1.0 NE 13 17 7 9 1029.9 1030.4 0.0
 
Date/Time
EST
Tmp

°C
App
Tmp
°C
Dew
Point
°C
Rel
Hum
%
Delta-T

°C
Wind Press
QNH
hPa
Press
MSL
hPa
Rain
since
9 am
mm
Dir
 
Spd
km/h
Gust
km/h
Spd
kts
Gust
kts
31/11:35pm 6.2 3.3 4.4 88 0.8 NE 9 13 5 7 1030.1 1030.6 0.0
31/11:30pm 6.2 2.9 4.4 88 0.8 NE 11 15 6 8 1030.1 1030.6 0.0
31/11:04pm 6.3 2.1 4.0 85 1.0 NE 15 20 8 11 1030.3 1030.8 0.0
31/11:00pm 6.4 2.3 4.1 85 1.0 NE 15 20 8 11 1030.3 1030.8 0.0
31/10:33pm 6.3 2.6 4.5 88 0.8 NE 13 19 7 10 1030.3 1030.8 0.0
31/10:30pm 6.3 2.2 4.3 87 0.9 NE 15 20 8 11 1030.2 1030.7 0.0
31/10:00pm 6.3 2.6 4.6 89 0.8 NE 13 19 7 10 1030.3 1030.8 0.0
31/09:30pm 6.2 3.1 5.5 95 0.3 NE 11 13 6 7 1030.3 1030.8 0.0
31/09:00pm 6.3 2.4 5.3 93 0.5 NE 15 19 8 10 1030.2 1030.7 0.0
31/08:30pm 6.4 2.9 5.5 94 0.4 NE 13 17 7 9 1030.2 1030.7 0.0
31/08:00pm 6.5 3.0 5.6 94 0.4 ENE 13 17 7 9 1030.0 1030.5 0.0
31/07:30pm 6.4 3.4 5.8 96 0.3 NE 11 13 6 7 1029.9 1030.4 0.0
31/07:25pm 6.4 3.0 5.8 96 0.3 NE 13 13 7 7 1029.9 1030.4 0.0
31/07:00pm 6.3 2.8 5.6 95 0.3 NE 13 15 7 8 1029.7 1030.1 0.0
31/06:47pm 6.3 3.2 5.6 95 0.3 NNE 11 15 6 8 1029.7 1030.1 0.0
31/06:30pm 6.1 2.9 5.2 94 0.4 NNE 11 13 6 7 1029.7 1030.1 0.0
31/06:00pm 7.0 3.5 5.3 89 0.8 NE 13 13 7 7 1029.5 1029.9 0.0
31/05:30pm 7.1 3.6 5.4 89 0.8 NE 13 15 7 8 1029.4 1029.8 0.0
31/05:00pm 7.2 3.8 5.8 91 0.7 NE 13 17 7 9 1029.1 1029.6 0.0
31/04:32pm 7.1 3.4 6.4 95 0.3 ENE 15 20 8 11 1029.1 1029.6 0.0
31/04:30pm 7.2 3.6 6.6 96 0.3 ENE 15 24 8 13 1029.1 1029.6 0.0
31/04:20pm 7.4 3.4 6.5 94 0.4 ENE 17 20 9 11 1029.0 1029.5 0.0
31/04:00pm 7.8 3.2 6.4 91 0.7 ENE 20 24 11 13 1028.9 1029.4 0.0
31/03:30pm 8.1 3.6 5.9 86 1.1 ENE 19 24 10 13 1028.8 1029.2 0.0
31/03:08pm 9.0 4.8 5.6 79 1.6 ENE 17 20 9 11 1028.7 1029.1 0.0
31/03:00pm 9.1 4.9 5.8 80 1.6 ENE 17 20 9 11 1028.7 1029.1 0.0
31/02:30pm 9.1 6.5 6.0 81 1.5 SSE 9 15 5 8 1028.7 1029.1 0.0
31/02:17pm 9.1 5.7 6.0 81 1.5 S 13 17 7 9 1028.6 1029.0 0.0
31/02:00pm 9.4 8.5 6.1 80 1.6 CALM 0 0 0 0 1028.7 1029.1 0.0
31/01:30pm 9.0 7.6 5.7 80 1.6 NNE 2 7 1 4 1028.9 1029.4 0.0
31/01:14pm 8.7 7.7 5.6 81 1.5 CALM 0 0 0 0 1029.0 1029.5 0.0
31/01:00pm 8.9 7.0 7.4 90 0.7 ENE 7 11 4 6 1029.1 1029.6 0.0
31/12:53pm 8.5 6.6 6.8 89 0.8 ENE 6 11 3 6 1029.2 1029.7 0.0
31/12:34pm 8.2 5.7 6.5 89 0.8 ESE 9 15 5 8 1029.4 1029.8 0.0
31/12:31pm 8.3 5.8 6.4 88 0.9 SE 9 15 5 8 1029.4 1029.8 0.0
31/12:30pm 8.6 6.1 6.6 87 1.0 SE 9 13 5 7 1029.5 1029.9 0.0
31/12:00pm 9.0 5.3 4.6 74 2.0 SSE 13 19 7 10 1029.6 1030.0 0.0
31/11:31am 10.0 7.2 5.2 72 2.3 NNW 9 15 5 8 1029.9 1030.4 0.0
31/11:30am 9.9 7.5 5.1 72 2.3 NNW 7 15 4 8 1029.9 1030.4 0.0
31/11:00am 8.4 5.5 4.4 76 1.8 S 9 13 5 7 1030.6 1031.0 0.0
31/10:42am 8.5 5.8 3.8 72 2.2 SW 7 9 4 5 1030.7 1031.1 0.0
31/10:30am 8.6 6.2 4.2 74 2.0 WSW 6 9 3 5 1030.7 1031.1 0.0
31/10:00am 7.0 3.9 3.6 79 1.5 SSW 9 11 5 6 1030.9 1031.4 0.0
31/09:30am 6.0 3.2 3.2 82 1.2 SSW 7 9 4 5 1031.0 1031.5 0.0
31/09:00am 5.4 2.3 3.4 87 0.9 SSW 9 13 5 7 1031.0 1031.5 0.0
31/08:30am 4.5 1.3 3.3 92 0.5 S 9 11 5 6 1030.8 1031.3 0.0
31/08:00am 3.9 0.7 3.2 95 0.3 SW 9 11 5 6 1030.4 1030.9 0.0
31/07:30am 3.5 0.7 3.2 98 0.1 W 7 11 4 6 1030.3 1030.8 0.0
31/07:00am 3.2 -0.4 3.1 99 0.0 SW 11 13 6 7 1030.0 1030.5 0.0
31/06:30am 3.2 0.0 3.1 99 0.0 SSW 9 13 5 7 1029.9 1030.4 0.0
31/06:00am 3.0 -0.6 2.9 99 0.0 SSW 11 13 6 7 1029.6 1030.0 0.0
31/05:30am 3.0 -0.2 2.9 99 0.0 SSW 9 11 5 6 1029.5 1029.9 0.0
31/05:00am 3.0 -0.3 2.6 97 0.2 SW 9 11 5 6 1029.2 1029.7 0.0
31/04:30am 3.1 -0.6 2.4 95 0.3 SSW 11 13 6 7 1029.0 1029.5 0.0
31/04:00am 3.2 0.2 2.3 94 0.4 S 7 9 4 5 1028.9 1029.4 0.0
31/03:30am 3.4 0.5 2.5 94 0.4 S 7 9 4 5 1029.0 1029.5 0.0
31/03:25am 3.4 0.7 2.7 95 0.3 SSW 6 9 3 5 1028.9 1029.4 0.0
31/03:00am 3.3 0.4 2.4 94 0.4 WSW 7 9 4 5 1029.0 1029.5 0.0
31/02:30am 3.2 0.3 2.5 95 0.3 WSW 7 9 4 5 1029.1 1029.6 0.0
31/02:00am 2.7 -0.2 2.4 98 0.1 SW 7 9 4 5 1029.1 1029.6 0.0
31/01:59am 2.6 -0.4 2.3 98 0.1 SW 7 9 4 5 1029.1 1029.6 0.0
31/01:30am 1.9 -2.0 1.2 95 0.3 S 11 13 6 7 1029.0 1029.5 0.0
31/01:00am 2.9 -0.6 1.0 87 0.8 SSW 9 11 5 6 1028.9 1029.4 0.0
31/12:30am 4.0 0.7 2.2 88 0.8 SSW 9 11 5 6 1029.0 1029.5 0.0
31/12:00am 3.7 0.7 1.7 87 0.8 SSW 7 9 4 5 1029.0 1029.5 0.0
 
Date/Time
EST
Tmp

°C
App
Tmp
°C
Dew
Point
°C
Rel
Hum
%
Delta-T

°C
Wind Press
QNH
hPa
Press
MSL
hPa
Rain
since
9 am
mm
Dir
 
Spd
km/h
Gust
km/h
Spd
kts
Gust
kts
30/11:30pm 4.1 1.3 2.0 86 0.9 SSW 6 7 3 4 1028.9 1029.4 0.0
30/11:00pm 4.5 1.2 2.2 85 1.0 SW 9 11 5 6 1028.8 1029.2 0.0
30/10:30pm 4.7 1.4 2.4 85 1.0 WSW 9 9 5 5 1028.5 1028.9 0.0
30/10:00pm 5.0 1.6 2.0 81 1.3 SW 9 11 5 6 1028.4 1028.8 0.0
30/09:30pm 5.7 3.0 2.7 81 1.3 WSW 6 9 3 5 1028.5 1028.9 0.0
30/09:00pm 5.5 2.6 2.5 81 1.3 SW 7 9 4 5 1028.3 1028.7 0.0
30/08:30pm 5.0 2.0 1.8 80 1.4 SW 7 7 4 4 1027.9 1028.4 0.0
30/08:00pm 5.4 2.4 2.1 79 1.4 SSW 7 9 4 5 1027.6 1028.0 0.0
30/07:30pm 4.9 1.4 1.4 78 1.5 S 9 11 5 6 1027.5 1027.9 0.0
30/07:00pm 5.8 2.4 1.9 76 1.7 SSW 9 11 5 6 1027.3 1027.7 0.0
30/06:30pm 6.2 3.2 1.9 74 1.8 SSW 7 9 4 5 1027.1 1027.5 0.0
30/06:00pm 6.6 3.2 2.1 73 1.9 SW 9 11 5 6 1026.8 1027.2 0.0
30/05:30pm 6.8 3.4 2.1 72 2.0 SSW 9 11 5 6 1026.5 1026.9 0.0
30/05:00pm 7.2 3.9 2.3 71 2.1 S 9 11 5 6 1026.2 1026.6 0.0
30/04:30pm 6.2 1.9 1.3 71 2.1 S 13 15 7 8 1025.7 1026.1 0.0
30/04:00pm 8.3 3.8 1.9 64 2.8 SSW 15 19 8 10 1025.5 1025.9 0.0
30/03:30pm 8.4 5.0 1.8 63 2.9 SW 9 11 5 6 1025.4 1025.8 0.0
30/03:00pm 8.6 4.8 1.5 61 3.1 SSW 11 15 6 8 1025.3 1025.7 0.0
30/02:30pm 8.5 5.0 1.4 61 3.1 SSW 9 15 5 8 1025.1 1025.4 0.0
30/02:00pm 8.5 4.6 1.4 61 3.1 S 11 17 6 9 1025.0 1025.3 0.0
30/01:30pm 8.5 3.8 1.2 60 3.2 S 15 20 8 11 1025.0 1025.3 0.0
30/01:00pm 8.6 4.0 1.5 61 3.1 S 15 20 8 11 1025.1 1025.4 0.0
30/12:30pm 9.1 5.0 2.0 61 3.1 SSW 13 19 7 10 1025.3 1025.7 0.0
30/12:00pm 8.2 4.0 1.4 62 2.9 S 13 22 7 12 1025.4 1025.8 0.0
30/11:30am 7.1 2.3 0.1 61 2.9 SSW 15 26 8 14 1026.0 1026.3 0.0
30/11:00am 6.8 2.0 0.0 62 2.8 SW 15 20 8 11 1026.2 1026.6 0.0
30/10:30am 5.8 1.2 -0.7 63 2.6 SW 13 17 7 9 1026.4 1026.8 0.0
30/10:00am 4.8 0.3 0.0 71 1.9 SSW 13 17 7 9 1026.4 1026.8 0.0
30/09:30am 2.7 0.3 -0.2 81 1.1 SSW 2 7 1 4 1026.3 1026.7 0.0
30/09:00am 1.2 -0.8 -0.4 89 0.6 CALM 0 0 0 0 1025.8 1026.2 0.0
30/08:30am -2.0 -4.3 -2.1 99 -0.1 CALM 0 0 0 0 1025.5 1025.9 0.0
30/08:00am -6.1 -8.9 -6.8 95 0.0 CALM 0 6 0 3 1025.4 1025.8 0.0
30/07:30am -8.6 -11.6 -9.7 92 0.0 CALM 0 6 0 3 1024.9 1025.2 0.0
30/07:00am -9.7 -12.8 -11.3 88 0.1 CALM 0 0 0 0 1024.6 1025.0 0.0
30/06:30am -9.3 -12.4 -10.9 88 0.1 CALM 0 0 0 0 1024.3 1024.7 0.0
30/06:00am -9.0 -12.1 -10.6 88 0.1 CALM 0 0 0 0 1023.8 1024.1 0.0
30/05:30am -8.0 -11.3 -8.8 94 -0.1 SE 2 7 1 4 1023.3 1023.7 0.0
30/05:00am -6.3 -9.0 -6.4 99 -0.2 CALM 0 0 0 0 1023.1 1023.4 0.0
30/04:43am -7.2 -10.1 -7.5 98 -0.2 CALM 0 0 0 0 1023.0 1023.3 0.0
30/04:30am -7.2 -10.8 -7.3 99 -0.2 SE 4 6 2 3 1023.0 1023.3 0.0
30/04:15am -8.6 -12.0 -9.9 90 0.1 NW 2 7 1 4 1022.9 1023.2 0.0
30/04:06am -8.2 -11.6 -9.5 90 0.1 NW 2 6 1 3 1022.8 1023.1 0.0
30/04:00am -7.7 -11.0 -8.2 96 -0.1 NNW 2 6 1 3 1022.8 1023.1 0.0
30/03:44am -6.7 -9.9 -7.1 97 -0.1 ENE 2 6 1 3 1022.7 1023.0 0.0
30/03:30am -7.4 -10.7 -7.9 96 -0.1 ESE 2 7 1 4 1022.6 1022.9 0.0
30/03:00am -7.0 -9.9 -7.5 96 -0.1 CALM 0 0 0 0 1022.5 1022.8 0.0
30/02:30am -7.3 -12.0 -8.7 90 0.1 ENE 9 11 5 6 1022.5 1022.8 0.0
30/02:00am -6.9 -10.6 -8.0 92 0.1 SE 4 9 2 5 1022.2 1022.5 0.0
30/01:30am -5.9 -9.4 -6.6 95 0.0 NNE 4 7 2 4 1021.9 1022.2 0.0
30/01:00am -6.7 -9.6 -8.6 86 0.3 CALM 0 7 0 4 1021.6 1021.9 0.0
30/12:30am -5.3 -8.0 -6.1 94 0.0 CALM 0 4 0 2 1021.6 1021.9 0.0
30/12:00am -4.5 -8.2 -4.8 98 -0.1 SW 6 7 3 4 1021.5 1021.8 0.0
 
Date/Time
EST
Tmp

°C
App
Tmp
°C
Dew
Point
°C
Rel
Hum
%
Delta-T

°C
Wind Press
QNH
hPa
Press
MSL
hPa
Rain
since
9 am
mm
Dir
 
Spd
km/h
Gust
km/h
Spd
kts
Gust
kts
29/11:30pm -4.4 -7.1 -5.6 91 0.2 CALM 0 7 0 4 1021.6 1021.9 0.0
29/11:00pm -3.9 -6.9 -5.3 90 0.3 NNE 2 7 1 4 1021.5 1021.8 0.0
29/10:30pm -3.9 -6.6 -5.6 88 0.4 CALM 0 0 0 0 1021.3 1021.5 0.0
29/10:00pm -2.6 -5.4 -3.7 92 0.3 E 2 6 1 3 1021.0 1021.3 0.0
29/09:30pm -3.0 -6.8 -5.5 83 0.7 SW 6 15 3 8 1020.7 1021.0 0.0
29/09:00pm -4.3 -8.3 -6.1 87 0.4 W 7 11 4 6 1020.5 1020.7 0.0
29/08:30pm -3.5 -8.6 -5.2 88 0.4 WSW 13 15 7 8 1020.4 1020.6 0.0
29/08:00pm -3.5 -7.9 -6.3 81 0.7 WSW 9 11 5 6 1020.0 1020.3 0.0
29/07:30pm -3.1 -7.5 -6.2 79 0.8 SW 9 11 5 6 1019.8 1020.1 0.0
29/07:00pm -1.2 -5.0 -5.4 73 1.3 SSW 6 7 3 4 1019.4 1019.6 0.0
29/06:30pm 2.2 -2.3 -3.3 67 2.0 SSW 11 13 6 7 1019.1 1019.3 0.0
29/06:00pm 3.5 -1.3 -2.9 63 2.4 WSW 13 20 7 11 1018.7 1019.0 0.0
29/05:30pm 3.5 -1.7 -3.1 62 2.4 S 15 19 8 10 1018.3 1018.5 0.0
29/05:00pm 5.3 -0.7 -3.2 54 3.2 WSW 19 20 10 11 1017.9 1018.1 0.0
29/04:30pm 8.0 2.1 -2.6 47 4.2 SW 19 22 10 12 1017.5 1017.7 0.0
29/04:00pm 9.5 3.6 -2.4 43 4.8 SW 19 26 10 14 1017.1 1017.3 0.0
29/03:30pm 9.9 3.8 -2.4 42 5.0 SSW 20 26 11 14 1016.8 1016.9 0.0
29/03:00pm 10.4 4.3 -2.3 41 5.1 S 20 28 11 15 1016.4 1016.6 0.0
29/02:30pm 10.2 4.1 -2.4 41 5.1 S 20 28 11 15 1016.2 1016.4 0.0
29/02:00pm 10.0 3.8 -3.0 40 5.2 SSW 20 32 11 17 1016.0 1016.2 0.0
29/01:30pm 9.9 2.6 -3.0 40 5.1 SSW 26 35 14 19 1015.9 1016.1 0.0
29/01:00pm 10.1 3.2 -2.5 41 5.1 SSW 24 35 13 19 1015.9 1016.1 0.0
29/12:30pm 9.9 3.5 -1.8 44 4.8 SSW 22 32 12 17 1016.0 1016.2 0.0
29/12:00pm 9.2 2.4 -2.1 45 4.5 S 24 33 13 18 1016.2 1016.4 0.0
29/11:30am 9.2 3.2 -1.5 47 4.4 SW 20 32 11 17 1016.4 1016.6 0.0
29/11:00am 8.4 2.0 -1.4 50 4.0 SW 22 32 12 17 1016.5 1016.7 0.0
29/10:30am 7.6 1.2 -1.4 53 3.6 WSW 22 28 12 15 1016.7 1016.8 0.0
29/10:00am 7.0 0.6 -1.7 54 3.5 WSW 22 33 12 18 1016.7 1016.8 0.0
29/09:30am 5.9 0.1 -1.5 59 2.9 WSW 19 28 10 15 1016.4 1016.6 0.0
29/09:00am 4.8 -0.4 0.0 71 1.9 WSW 17 22 9 12 1016.3 1016.5 0.0
29/08:30am 0.4 -1.8 -1.2 89 0.6 CALM 0 0 0 0 1016.0 1016.2 0.0
29/08:00am -4.4 -7.4 -5.1 95 0.0 SE 2 7 1 4 1016.0 1016.2 0.0
29/07:30am -6.7 -9.6 -7.9 91 0.1 CALM 0 0 0 0 1015.6 1015.7 0.0
29/07:00am -6.3 -9.1 -6.6 98 -0.1 CALM 0 6 0 3 1015.3 1015.5 0.0
29/06:30am -7.9 -11.0 -10.1 84 0.3 CALM 0 6 0 3 1015.1 1015.3 0.0
29/06:00am -6.0 -10.0 -7.4 90 0.2 NNE 6 7 3 4 1014.9 1015.0 0.0
29/05:30am -5.5 -8.7 -6.7 91 0.1 NNE 2 6 1 3 1014.7 1014.8 0.0
29/05:00am -5.1 -7.9 -6.8 88 0.3 CALM 0 0 0 0 1014.6 1014.7 0.0
29/04:30am -3.4 -6.4 -4.8 90 0.3 ESE 2 6 1 3 1014.1 1014.3 0.0
29/04:00am -2.5 -5.5 -5.5 80 0.9 N 2 7 1 4 1014.0 1014.2 0.0
29/03:30am -0.1 -4.1 -2.5 84 0.9 SW 9 13 5 7 1013.7 1013.8 0.0
29/03:00am -0.6 -5.5 -3.1 83 0.9 SW 13 15 7 8 1013.6 1013.7 0.0
29/02:30am 0.0 -5.4 -1.6 89 0.6 WSW 17 20 9 11 1013.5 1013.6 0.0
29/02:00am 0.6 -5.0 -2.6 79 1.2 SW 17 22 9 12 1013.3 1013.4 0.0
29/01:30am 1.9 -4.1 -1.3 79 1.2 WSW 20 26 11 14 1013.2 1013.3 0.0
29/01:00am 1.2 -4.8 -1.5 82 1.0 WSW 20 22 11 12 1013.0 1013.1 0.0
29/12:30am 1.2 -4.8 -1.9 80 1.1 WSW 20 22 11 12 1012.9 1013.0 0.0

Latest Capital City Observations: Canberra | Sydney | Melbourne | Brisbane | Adelaide | Perth | Hobart | Darwin

Other Formats:

Comma delimited format used in spreadsheet applications
http://www.bom.gov.au/fwo/IDN60903/IDN60903.94921.axf

JavaScript Object Notation format (JSON) in row-major order
http://www.bom.gov.au/fwo/IDN60903/IDN60903.94921.json